createdAt,value
2022-11-28T00:00:01.973Z,0.00
2022-11-28T00:01:02.034Z,0.00
2022-11-28T00:02:02.082Z,0.00
2022-11-28T00:03:02.221Z,0.00
2022-11-28T00:04:02.143Z,0.00
2022-11-28T00:05:02.145Z,0.00
2022-11-28T00:06:02.213Z,0.00
2022-11-28T00:07:02.267Z,0.00
2022-11-28T00:08:02.294Z,0.00
2022-11-28T00:09:02.297Z,0.00
2022-11-28T00:10:02.265Z,0.00
2022-11-28T00:11:02.315Z,0.00
2022-11-28T00:12:02.307Z,0.00
2022-11-28T00:13:02.336Z,0.00
2022-11-28T00:14:02.368Z,0.00
2022-11-28T00:15:02.355Z,0.00
2022-11-28T00:16:02.426Z,0.00
2022-11-28T00:17:02.396Z,0.00
2022-11-28T00:18:02.532Z,0.00
2022-11-28T00:19:02.450Z,0.00
2022-11-28T00:20:02.427Z,0.00
2022-11-28T00:21:02.442Z,0.00
2022-11-28T00:22:02.447Z,0.00
2022-11-28T00:23:02.458Z,0.00
2022-11-28T00:24:02.507Z,0.00
2022-11-28T00:25:02.528Z,0.00
2022-11-28T00:26:02.567Z,0.00
2022-11-28T00:27:02.612Z,0.00
2022-11-28T00:28:02.579Z,0.00
2022-11-28T00:29:02.568Z,0.00
2022-11-28T00:30:02.573Z,0.00
2022-11-28T00:31:02.619Z,0.00
2022-11-28T00:32:02.719Z,0.00
2022-11-28T00:33:02.662Z,0.00
2022-11-28T00:34:02.669Z,0.00
2022-11-28T00:35:02.711Z,0.00
2022-11-28T00:36:02.778Z,0.00
2022-11-28T00:37:02.831Z,0.00
2022-11-28T00:38:02.801Z,0.00
2022-11-28T00:39:02.812Z,0.00
2022-11-28T00:40:02.821Z,0.00
2022-11-28T00:41:02.864Z,0.00
2022-11-28T00:42:02.927Z,0.00
2022-11-28T00:43:02.925Z,0.00
2022-11-28T00:44:02.972Z,0.00
2022-11-28T00:45:03.027Z,0.00
2022-11-28T00:46:03.150Z,0.00
2022-11-28T00:47:03.063Z,0.00
2022-11-28T00:48:03.034Z,0.00
2022-11-28T00:49:03.034Z,0.00
2022-11-28T00:50:03.074Z,0.00
2022-11-28T00:51:03.055Z,0.00
2022-11-28T00:52:03.095Z,0.00
2022-11-28T00:53:03.084Z,0.00
2022-11-28T00:54:03.137Z,0.00
2022-11-28T00:55:03.114Z,0.00
2022-11-28T00:56:03.177Z,0.00
2022-11-28T00:57:03.206Z,0.00
2022-11-28T00:58:03.266Z,0.00
2022-11-28T00:59:03.986Z,0.00
2022-11-28T01:00:03.399Z,0.00
2022-11-28T01:01:03.509Z,0.00
2022-11-28T01:02:03.563Z,0.00
2022-11-28T01:03:03.575Z,0.00
2022-11-28T01:04:03.627Z,0.00
2022-11-28T01:05:03.618Z,0.00
2022-11-28T01:06:03.677Z,0.00
2022-11-28T01:07:03.727Z,0.00
2022-11-28T01:08:03.728Z,0.00
2022-11-28T01:09:03.741Z,0.00
2022-11-28T01:10:03.753Z,0.00
2022-11-28T01:11:03.798Z,0.00
2022-11-28T01:12:03.858Z,0.00
2022-11-28T01:13:03.861Z,0.00
2022-11-28T01:14:03.861Z,0.00
2022-11-28T01:15:03.858Z,0.00
2022-11-28T01:16:03.954Z,0.00
2022-11-28T01:17:03.989Z,0.00
2022-11-28T01:18:04.050Z,0.00
2022-11-28T01:19:04.089Z,0.00
2022-11-28T01:20:04.141Z,0.00
2022-11-28T01:21:04.168Z,0.00
2022-11-28T01:22:04.220Z,0.00
2022-11-28T01:23:04.253Z,0.00
2022-11-28T01:24:04.312Z,0.00
2022-11-28T01:25:04.344Z,0.00
2022-11-28T01:26:04.398Z,0.00
2022-11-28T01:27:04.453Z,0.00
2022-11-28T01:28:04.462Z,0.00
2022-11-28T01:29:04.474Z,0.00
2022-11-28T01:30:04.515Z,0.00
2022-11-28T01:31:04.615Z,0.00
2022-11-28T01:32:04.622Z,0.00
2022-11-28T01:33:04.672Z,0.00
2022-11-28T01:34:04.743Z,0.00
2022-11-28T01:35:04.714Z,0.00
2022-11-28T01:36:04.773Z,0.00
2022-11-28T01:37:04.814Z,0.00
2022-11-28T01:38:04.863Z,0.00
2022-11-28T01:39:04.924Z,0.00
2022-11-28T01:40:04.966Z,0.00
2022-11-28T01:41:05.044Z,0.00
2022-11-28T01:42:05.076Z,0.00
2022-11-28T01:43:05.085Z,0.00
2022-11-28T01:44:05.096Z,0.00
2022-11-28T01:45:05.146Z,0.00
2022-11-28T01:46:05.125Z,0.00
2022-11-28T01:47:05.246Z,0.00
2022-11-28T01:48:05.223Z,0.00
2022-11-28T01:49:05.267Z,0.00
2022-11-28T01:50:05.276Z,0.00
2022-11-28T01:51:05.337Z,0.00
2022-11-28T01:52:05.377Z,0.00
2022-11-28T01:53:05.417Z,0.00
2022-11-28T01:54:05.477Z,0.00
2022-11-28T01:55:05.497Z,0.00
2022-11-28T01:56:05.588Z,0.00
2022-11-28T01:57:05.627Z,0.00
2022-11-28T01:58:05.670Z,0.00
2022-11-28T01:59:05.667Z,0.00
2022-11-28T02:00:05.736Z,0.00
2022-11-28T02:01:05.893Z,0.00
2022-11-28T02:02:05.819Z,0.00
2022-11-28T02:03:05.744Z,0.00
2022-11-28T02:04:05.769Z,0.00
2022-11-28T02:05:05.769Z,0.00
2022-11-28T02:06:05.802Z,0.00
2022-11-28T02:07:05.821Z,0.00
2022-11-28T02:08:05.821Z,0.00
2022-11-28T02:09:05.823Z,0.00
2022-11-28T02:10:05.869Z,0.00
2022-11-28T02:11:05.955Z,0.00
2022-11-28T02:12:05.921Z,0.00
2022-11-28T02:13:05.921Z,0.00
2022-11-28T02:14:05.963Z,0.00
2022-11-28T02:15:05.962Z,0.00
2022-11-28T02:16:06.000Z,0.00
2022-11-28T02:17:06.010Z,0.00
2022-11-28T02:18:06.003Z,0.00
2022-11-28T02:19:06.063Z,0.00
2022-11-28T02:20:06.054Z,0.00
2022-11-28T02:21:06.077Z,0.00
2022-11-28T02:22:06.164Z,0.00
2022-11-28T02:23:06.174Z,0.00
2022-11-28T02:24:06.164Z,0.00
2022-11-28T02:25:06.204Z,0.00
2022-11-28T02:26:06.234Z,0.00
2022-11-28T02:27:06.297Z,0.00
2022-11-28T02:28:06.287Z,0.00
2022-11-28T02:29:06.285Z,0.00
2022-11-28T02:30:06.296Z,0.00
2022-11-28T02:31:06.472Z,0.00
2022-11-28T02:32:06.435Z,0.00
2022-11-28T02:33:06.445Z,0.00
2022-11-28T02:34:06.447Z,0.00
2022-11-28T02:35:06.468Z,0.00
2022-11-28T02:36:06.536Z,0.00
2022-11-28T02:37:06.548Z,0.00
2022-11-28T02:38:06.566Z,0.00
2022-11-28T02:39:06.617Z,0.00
2022-11-28T02:40:06.651Z,0.00
2022-11-28T02:41:06.678Z,0.00
2022-11-28T02:42:06.728Z,0.00
2022-11-28T02:43:06.798Z,0.00
2022-11-28T02:44:06.778Z,0.00
2022-11-28T02:45:06.791Z,0.00
2022-11-28T02:46:06.828Z,0.00
2022-11-28T02:47:06.884Z,0.00
2022-11-28T02:48:06.823Z,0.00
2022-11-28T02:49:06.860Z,0.00
2022-11-28T02:50:06.857Z,0.00
2022-11-28T02:51:06.919Z,0.00
2022-11-28T02:52:06.950Z,0.00
2022-11-28T02:53:06.938Z,0.00
2022-11-28T02:54:06.959Z,0.00
2022-11-28T02:55:06.990Z,0.00
2022-11-28T02:56:07.033Z,0.00
2022-11-28T02:57:07.080Z,0.00
2022-11-28T02:58:07.121Z,0.00
2022-11-28T02:59:07.171Z,0.00
2022-11-28T03:00:07.192Z,0.00
2022-11-28T03:01:07.278Z,0.00
2022-11-28T03:02:07.358Z,0.00
2022-11-28T03:03:07.306Z,0.00
2022-11-28T03:04:07.362Z,0.00
2022-11-28T03:05:07.383Z,0.00
2022-11-28T03:06:07.391Z,0.00
2022-11-28T03:07:07.479Z,0.00
2022-11-28T03:08:07.403Z,0.00
2022-11-28T03:09:07.435Z,0.00
2022-11-28T03:10:07.481Z,0.00
2022-11-28T03:11:07.443Z,0.00
2022-11-28T03:12:07.495Z,0.00
2022-11-28T03:13:07.483Z,0.00
2022-11-28T03:14:07.544Z,0.00
2022-11-28T03:15:07.608Z,0.00
2022-11-28T03:16:07.734Z,0.00
2022-11-28T03:17:07.654Z,0.00
2022-11-28T03:18:07.724Z,0.00
2022-11-28T03:19:07.756Z,0.00
2022-11-28T03:20:07.766Z,0.00
2022-11-28T03:21:07.748Z,0.00
2022-11-28T03:22:07.776Z,0.00
2022-11-28T03:23:07.776Z,0.00
2022-11-28T03:24:07.839Z,0.00
2022-11-28T03:25:07.906Z,0.00
2022-11-28T03:26:07.931Z,0.00
2022-11-28T03:27:07.919Z,0.00
2022-11-28T03:28:07.963Z,0.00
2022-11-28T03:29:07.987Z,0.00
2022-11-28T03:30:08.029Z,0.00
2022-11-28T03:31:08.143Z,0.00
2022-11-28T03:32:08.050Z,0.00
2022-11-28T03:33:08.044Z,0.00
2022-11-28T03:34:08.037Z,0.00
2022-11-28T03:35:08.039Z,0.00
2022-11-28T03:36:08.110Z,0.00
2022-11-28T03:37:08.088Z,0.00
2022-11-28T03:38:08.090Z,0.00
2022-11-28T03:39:08.133Z,0.00
2022-11-28T03:40:08.192Z,0.00
2022-11-28T03:41:08.192Z,0.00
2022-11-28T03:42:08.222Z,0.00
2022-11-28T03:43:08.243Z,0.00
2022-11-28T03:44:08.250Z,0.00
2022-11-28T03:45:08.263Z,0.00
2022-11-28T03:46:08.271Z,0.00
2022-11-28T03:47:08.339Z,0.00
2022-11-28T03:48:08.322Z,0.00
2022-11-28T03:49:08.314Z,0.00
2022-11-28T03:50:08.311Z,0.00
2022-11-28T03:51:08.303Z,0.00
2022-11-28T03:52:08.323Z,0.00
2022-11-28T03:53:08.377Z,0.00
2022-11-28T03:54:08.424Z,0.00
2022-11-28T03:55:08.463Z,0.00
2022-11-28T03:56:08.601Z,0.00
2022-11-28T03:57:08.587Z,0.00
2022-11-28T03:58:08.585Z,0.00
2022-11-28T03:59:08.676Z,0.00
2022-11-28T04:00:08.704Z,0.00
2022-11-28T04:01:08.865Z,0.00
2022-11-28T04:02:08.810Z,0.00
2022-11-28T04:03:08.859Z,0.00
2022-11-28T04:04:08.846Z,0.00
2022-11-28T04:05:08.848Z,0.00
2022-11-28T04:06:08.895Z,0.00
2022-11-28T04:07:08.885Z,0.00
2022-11-28T04:08:08.946Z,0.00
2022-11-28T04:09:14.159Z,0.00
2022-11-28T04:10:09.047Z,0.00
2022-11-28T04:11:09.087Z,0.00
2022-11-28T04:12:09.145Z,0.00
2022-11-28T04:13:09.209Z,0.00
2022-11-28T04:14:09.228Z,0.00
2022-11-28T04:15:09.248Z,0.00
2022-11-28T04:16:09.270Z,0.00
2022-11-28T04:17:09.239Z,0.00
2022-11-28T04:18:09.259Z,0.00
2022-11-28T04:19:09.279Z,0.00
2022-11-28T04:20:09.289Z,0.00
2022-11-28T04:21:09.309Z,0.00
2022-11-28T04:22:09.359Z,0.00
2022-11-28T04:23:09.399Z,0.00
2022-11-28T04:24:09.418Z,0.00
2022-11-28T04:25:09.482Z,0.00
2022-11-28T04:26:09.480Z,0.00
2022-11-28T04:27:09.481Z,0.00
2022-11-28T04:28:09.532Z,0.00
2022-11-28T04:29:09.500Z,0.00
2022-11-28T04:30:09.519Z,0.00
2022-11-28T04:31:09.612Z,0.00
2022-11-28T04:32:09.601Z,0.00
2022-11-28T04:33:09.689Z,0.00
2022-11-28T04:34:09.673Z,0.00
2022-11-28T04:35:09.702Z,0.00
2022-11-28T04:36:09.762Z,0.00
2022-11-28T04:37:10.109Z,0.00
2022-11-28T04:38:09.833Z,0.00
2022-11-28T04:39:09.817Z,0.00
2022-11-28T04:40:09.833Z,0.00
2022-11-28T04:41:09.873Z,0.00
2022-11-28T04:42:09.905Z,0.00
2022-11-28T04:43:09.973Z,0.00
2022-11-28T04:44:09.973Z,0.00
2022-11-28T04:45:09.986Z,0.00
2022-11-28T04:46:10.083Z,0.00
2022-11-28T04:47:10.125Z,0.00
2022-11-28T04:48:10.168Z,0.00
2022-11-28T04:49:10.160Z,0.00
2022-11-28T04:50:10.194Z,0.00
2022-11-28T04:51:10.237Z,0.00
2022-11-28T04:52:10.275Z,0.00
2022-11-28T04:53:10.266Z,0.00
2022-11-28T04:54:10.267Z,0.00
2022-11-28T04:55:10.297Z,0.00
2022-11-28T04:56:10.318Z,0.00
2022-11-28T04:57:10.378Z,0.00
2022-11-28T04:58:10.498Z,0.00
2022-11-28T04:59:10.438Z,0.00
2022-11-28T05:00:10.457Z,0.00
2022-11-28T05:01:10.534Z,0.00
2022-11-28T05:02:10.568Z,0.00
2022-11-28T05:03:10.550Z,0.00
2022-11-28T05:04:10.508Z,0.00
2022-11-28T05:05:10.589Z,0.00
2022-11-28T05:06:10.610Z,0.00
2022-11-28T05:07:10.693Z,0.00
2022-11-28T05:08:10.689Z,0.00
2022-11-28T05:09:10.689Z,0.00
2022-11-28T05:10:10.690Z,0.00
2022-11-28T05:11:10.709Z,0.00
2022-11-28T05:12:10.790Z,0.00
2022-11-28T05:13:10.832Z,0.00
2022-11-28T05:14:10.830Z,0.00
2022-11-28T05:15:10.853Z,0.00
2022-11-28T05:16:10.897Z,0.00
2022-11-28T05:17:10.940Z,0.00
2022-11-28T05:18:10.922Z,0.00
2022-11-28T05:19:10.981Z,0.00
2022-11-28T05:20:10.982Z,0.00
2022-11-28T05:21:10.994Z,0.00
2022-11-28T05:22:10.993Z,0.00
2022-11-28T05:23:11.011Z,0.00
2022-11-28T05:24:11.076Z,0.00
2022-11-28T05:25:11.080Z,0.00
2022-11-28T05:26:11.065Z,0.00
2022-11-28T05:27:11.084Z,0.00
2022-11-28T05:28:11.093Z,0.00
2022-11-28T05:29:11.194Z,0.00
2022-11-28T05:30:11.224Z,0.00
2022-11-28T05:31:11.386Z,0.00
2022-11-28T05:32:11.245Z,0.00
2022-11-28T05:33:11.314Z,0.00
2022-11-28T05:34:11.356Z,0.00
2022-11-28T05:35:11.356Z,0.00
2022-11-28T05:36:13.437Z,0.00
2022-11-28T05:37:11.456Z,0.00
2022-11-28T05:38:13.681Z,0.00
2022-11-28T05:39:11.436Z,0.00
2022-11-28T05:40:11.445Z,0.00
2022-11-28T05:41:11.506Z,0.00
2022-11-28T05:42:11.517Z,0.00
2022-11-28T05:43:11.500Z,0.00
2022-11-28T05:44:11.516Z,0.00
2022-11-28T05:45:11.597Z,0.00
2022-11-28T05:46:11.664Z,0.00
2022-11-28T05:47:11.646Z,0.00
2022-11-28T05:48:11.652Z,0.00
2022-11-28T05:49:11.649Z,0.00
2022-11-28T05:50:11.716Z,0.00
2022-11-28T05:51:11.734Z,0.00
2022-11-28T05:52:11.749Z,0.00
2022-11-28T05:53:11.740Z,0.00
2022-11-28T05:54:11.779Z,0.00
2022-11-28T05:55:11.786Z,0.00
2022-11-28T05:56:11.858Z,0.00
2022-11-28T05:57:11.860Z,0.00
2022-11-28T05:58:11.889Z,0.00
2022-11-28T05:59:11.940Z,0.00
2022-11-28T06:00:11.962Z,0.00
2022-11-28T06:01:11.961Z,0.00
2022-11-28T06:02:12.082Z,0.00
2022-11-28T06:03:12.044Z,0.00
2022-11-28T06:04:12.156Z,0.00
2022-11-28T06:05:40.323Z,0.00
2022-11-28T06:06:12.131Z,0.00
2022-11-28T06:07:12.148Z,0.00
2022-11-28T06:08:12.215Z,0.00
2022-11-28T06:09:12.232Z,0.00
2022-11-28T06:10:12.223Z,0.00
2022-11-28T06:11:12.203Z,0.00
2022-11-28T06:12:12.204Z,0.00
2022-11-28T06:13:13.054Z,0.00
2022-11-28T06:14:12.272Z,0.00
2022-11-28T06:15:12.309Z,0.00
2022-11-28T06:16:12.407Z,0.00
2022-11-28T06:17:12.375Z,0.00
2022-11-28T06:18:12.365Z,0.00
2022-11-28T06:19:12.364Z,0.00
2022-11-28T06:20:12.404Z,0.00
2022-11-28T06:21:12.423Z,0.00
2022-11-28T06:22:12.455Z,0.00
2022-11-28T06:23:12.505Z,0.00
2022-11-28T06:24:12.516Z,0.00
2022-11-28T06:25:12.555Z,0.00
2022-11-28T06:26:12.555Z,0.00
2022-11-28T06:27:12.586Z,0.00
2022-11-28T06:28:12.612Z,0.00
2022-11-28T06:29:12.606Z,0.00
2022-11-28T06:30:12.611Z,0.00
2022-11-28T06:31:12.707Z,0.00
2022-11-28T06:32:14.704Z,0.00
2022-11-28T06:33:12.706Z,0.00
2022-11-28T06:34:12.727Z,0.00
2022-11-28T06:35:12.753Z,0.00
2022-11-28T06:36:12.770Z,0.00
2022-11-28T06:37:12.836Z,0.00
2022-11-28T06:38:14.433Z,0.00
2022-11-28T06:39:12.998Z,0.00
2022-11-28T06:40:12.873Z,0.00
2022-11-28T06:41:12.909Z,0.00
2022-11-28T06:42:12.930Z,0.00
2022-11-28T06:43:12.919Z,0.00
2022-11-28T06:44:12.979Z,0.00
2022-11-28T06:45:13.039Z,0.00
2022-11-28T06:46:15.896Z,0.00
2022-11-28T06:47:13.100Z,0.00
2022-11-28T06:48:13.091Z,0.00
2022-11-28T06:49:13.128Z,0.00
2022-11-28T06:50:13.153Z,0.00
2022-11-28T06:51:13.175Z,0.00
2022-11-28T06:52:13.190Z,0.00
2022-11-28T06:53:13.251Z,0.00
2022-11-28T06:54:13.322Z,0.00
2022-11-28T06:55:13.331Z,0.00
2022-11-28T06:56:13.372Z,0.00
2022-11-28T06:57:13.372Z,0.00
2022-11-28T06:58:13.406Z,0.00
2022-11-28T06:59:13.442Z,0.00
2022-11-28T07:00:13.710Z,0.00
2022-11-28T07:01:13.590Z,0.00
2022-11-28T07:02:13.603Z,0.00
2022-11-28T07:03:13.514Z,0.00
2022-11-28T07:04:13.562Z,0.00
2022-11-28T07:05:13.634Z,0.00
2022-11-28T07:06:13.623Z,0.00
2022-11-28T07:07:16.503Z,0.00
2022-11-28T07:08:13.734Z,0.00
2022-11-28T07:09:13.690Z,0.00
2022-11-28T07:10:13.715Z,0.00
2022-11-28T07:11:13.744Z,0.00
2022-11-28T07:12:13.735Z,0.00
2022-11-28T07:13:13.723Z,0.00
2022-11-28T07:14:13.766Z,0.00
2022-11-28T07:15:13.797Z,0.00
2022-11-28T07:16:13.886Z,0.00
2022-11-28T07:17:13.895Z,0.00
2022-11-28T07:18:13.926Z,0.00
2022-11-28T07:19:13.993Z,0.00
2022-11-28T07:20:14.048Z,0.00
2022-11-28T07:21:14.057Z,0.00
2022-11-28T07:22:14.097Z,0.00
2022-11-28T07:23:14.133Z,0.00
2022-11-28T07:24:14.188Z,0.00
2022-11-28T07:25:14.199Z,0.00
2022-11-28T07:26:14.209Z,0.00
2022-11-28T07:27:14.239Z,0.00
2022-11-28T07:28:14.287Z,5.62
2022-11-28T07:29:14.339Z,5.62
2022-11-28T07:30:14.368Z,5.62
2022-11-28T07:31:14.513Z,5.62
2022-11-28T07:32:14.444Z,5.62
2022-11-28T07:33:14.429Z,5.62
2022-11-28T07:34:14.465Z,5.62
2022-11-28T07:35:14.537Z,5.62
2022-11-28T07:36:14.549Z,5.62
2022-11-28T07:37:14.549Z,5.62
2022-11-28T07:38:14.603Z,5.62
2022-11-28T07:39:14.620Z,5.62
2022-11-28T07:40:14.670Z,5.62
2022-11-28T07:41:14.720Z,5.62
2022-11-28T07:42:14.729Z,5.62
2022-11-28T07:43:14.763Z,5.62
2022-11-28T07:44:14.812Z,11.25
2022-11-28T07:45:14.852Z,11.25
2022-11-28T07:46:14.907Z,11.25
2022-11-28T07:47:14.902Z,11.25
2022-11-28T07:48:14.942Z,11.25
2022-11-28T07:49:15.005Z,11.25
2022-11-28T07:50:15.112Z,11.25
2022-11-28T07:51:15.061Z,11.25
2022-11-28T07:52:15.093Z,11.25
2022-11-28T07:53:15.136Z,11.25
2022-11-28T07:54:15.163Z,11.25
2022-11-28T07:55:15.183Z,11.25
2022-11-28T07:56:15.271Z,11.25
2022-11-28T07:57:15.318Z,11.25
2022-11-28T07:58:15.268Z,11.25
2022-11-28T07:59:15.294Z,11.25
2022-11-28T08:00:15.324Z,11.25
2022-11-28T08:01:15.352Z,11.25
2022-11-28T08:02:15.427Z,11.25
2022-11-28T08:03:15.396Z,11.25
2022-11-28T08:04:15.505Z,16.88
2022-11-28T08:05:15.563Z,16.88
2022-11-28T08:06:15.486Z,16.88
2022-11-28T08:07:15.672Z,16.88
2022-11-28T08:08:15.556Z,16.88
2022-11-28T08:09:15.587Z,16.88
2022-11-28T08:10:15.656Z,16.88
2022-11-28T08:11:15.687Z,16.88
2022-11-28T08:12:15.755Z,16.88
2022-11-28T08:13:15.807Z,16.88
2022-11-28T08:14:15.826Z,16.88
2022-11-28T08:15:15.887Z,16.88
2022-11-28T08:16:16.008Z,16.88
2022-11-28T08:17:15.943Z,16.88
2022-11-28T08:18:15.998Z,16.88
2022-11-28T08:19:15.980Z,16.88
2022-11-28T08:20:15.996Z,16.88
2022-11-28T08:21:16.049Z,16.88
2022-11-28T08:22:16.090Z,22.50
2022-11-28T08:23:16.134Z,22.50
2022-11-28T08:24:16.139Z,22.50
2022-11-28T08:25:16.199Z,22.50
2022-11-28T08:26:16.239Z,16.88
2022-11-28T08:27:16.279Z,16.88
2022-11-28T08:28:16.249Z,16.88
2022-11-28T08:29:16.310Z,22.50
2022-11-28T08:30:16.368Z,22.50
2022-11-28T08:31:16.457Z,22.50
2022-11-28T08:32:16.450Z,22.50
2022-11-28T08:33:16.434Z,22.50
2022-11-28T08:34:16.453Z,22.50
2022-11-28T08:35:16.462Z,22.50
2022-11-28T08:36:16.522Z,28.12
2022-11-28T08:37:16.510Z,28.12
2022-11-28T08:38:16.556Z,28.12
2022-11-28T08:39:25.188Z,28.12
2022-11-28T08:40:16.624Z,28.12
2022-11-28T08:41:16.622Z,28.12
2022-11-28T08:42:16.720Z,28.12
2022-11-28T08:43:16.736Z,28.12
2022-11-28T08:44:16.714Z,28.12
2022-11-28T08:45:16.753Z,28.12
2022-11-28T08:46:16.817Z,28.12
2022-11-28T08:47:16.771Z,28.12
2022-11-28T08:48:16.746Z,28.12
2022-11-28T08:49:16.882Z,28.12
2022-11-28T08:50:16.866Z,28.12
2022-11-28T08:51:16.847Z,28.12
2022-11-28T08:52:16.953Z,28.12
2022-11-28T08:53:18.502Z,28.12
2022-11-28T08:54:17.110Z,28.12
2022-11-28T08:55:17.708Z,33.75
2022-11-28T08:56:17.055Z,33.75
2022-11-28T08:57:17.005Z,33.75
2022-11-28T08:58:17.068Z,33.75
2022-11-28T08:59:17.067Z,33.75
2022-11-28T09:00:17.085Z,33.75
2022-11-28T09:01:17.177Z,33.75
2022-11-28T09:02:19.837Z,33.75
2022-11-28T09:03:17.198Z,33.75
2022-11-28T09:04:17.271Z,33.75
2022-11-28T09:05:17.208Z,33.75
2022-11-28T09:06:17.226Z,33.75
2022-11-28T09:07:17.329Z,33.75
2022-11-28T09:08:17.311Z,33.75
2022-11-28T09:09:17.382Z,33.75
2022-11-28T09:10:17.377Z,33.75
2022-11-28T09:11:17.405Z,39.38
2022-11-28T09:12:17.418Z,39.38
2022-11-28T09:13:17.502Z,45.00
2022-11-28T09:14:17.549Z,45.00
2022-11-28T09:15:17.579Z,50.62
2022-11-28T09:16:17.746Z,50.62
2022-11-28T09:17:17.756Z,50.62
2022-11-28T09:18:17.720Z,50.62
2022-11-28T09:19:18.701Z,50.62
2022-11-28T09:20:17.790Z,56.25
2022-11-28T09:21:17.784Z,56.25
2022-11-28T09:22:17.790Z,56.25
2022-11-28T09:23:17.830Z,61.88
2022-11-28T09:24:17.901Z,61.88
2022-11-28T09:25:17.916Z,61.88
2022-11-28T09:26:18.013Z,67.50
2022-11-28T09:27:18.041Z,67.50
2022-11-28T09:28:18.021Z,67.50
2022-11-28T09:29:18.071Z,67.50
2022-11-28T09:30:18.084Z,67.50
2022-11-28T09:31:18.189Z,67.50
2022-11-28T09:32:18.115Z,67.50
2022-11-28T09:33:18.122Z,61.88
2022-11-28T09:34:18.137Z,61.88
2022-11-28T09:35:18.133Z,61.88
2022-11-28T09:36:18.124Z,61.88
2022-11-28T09:37:18.162Z,61.88
2022-11-28T09:38:18.177Z,61.88
2022-11-28T09:39:18.191Z,61.88
2022-11-28T09:40:18.420Z,61.88
2022-11-28T09:41:18.214Z,61.88
2022-11-28T09:42:18.205Z,61.88
2022-11-28T09:43:18.235Z,67.50
2022-11-28T09:44:18.284Z,67.50
2022-11-28T09:45:18.355Z,67.50
2022-11-28T09:46:18.466Z,67.50
2022-11-28T09:47:18.436Z,73.12
2022-11-28T09:48:18.429Z,73.12
2022-11-28T09:49:18.427Z,73.12
2022-11-28T09:50:18.474Z,78.75
2022-11-28T09:51:18.437Z,78.75
2022-11-28T09:52:18.526Z,84.38
2022-11-28T09:53:18.528Z,84.38
2022-11-28T09:54:18.526Z,84.38
2022-11-28T09:55:18.567Z,84.38
2022-11-28T09:56:18.648Z,84.38
2022-11-28T09:57:18.646Z,84.38
2022-11-28T09:58:18.637Z,84.38
2022-11-28T09:59:18.688Z,78.75
2022-11-28T10:00:18.916Z,78.75
2022-11-28T10:01:18.870Z,78.75
2022-11-28T10:02:18.769Z,78.75
2022-11-28T10:03:18.826Z,78.75
2022-11-28T10:04:18.930Z,84.38
2022-11-28T10:05:18.841Z,84.38
2022-11-28T10:06:18.859Z,84.38
2022-11-28T10:07:18.901Z,84.38
2022-11-28T10:08:18.890Z,84.38
2022-11-28T10:09:18.939Z,78.75
2022-11-28T10:10:18.960Z,78.75
2022-11-28T10:11:19.030Z,73.12
2022-11-28T10:12:19.098Z,73.12
2022-11-28T10:13:19.123Z,67.50
2022-11-28T10:14:19.168Z,67.50
2022-11-28T10:15:19.141Z,67.50
2022-11-28T10:16:19.228Z,67.50
2022-11-28T10:17:19.245Z,67.50
2022-11-28T10:18:19.270Z,67.50
2022-11-28T10:19:52.282Z,61.88
2022-11-28T10:20:19.271Z,61.88
2022-11-28T10:21:19.283Z,61.88
2022-11-28T10:22:19.293Z,56.25
2022-11-28T10:23:19.344Z,56.25
2022-11-28T10:24:19.374Z,50.62
2022-11-28T10:25:19.423Z,50.62
2022-11-28T10:26:19.424Z,50.62
2022-11-28T10:27:25.441Z,56.25
2022-11-28T10:28:19.532Z,61.88
2022-11-28T10:29:19.597Z,61.88
2022-11-28T10:30:19.687Z,61.88
2022-11-28T10:31:19.782Z,67.50
2022-11-28T10:32:19.733Z,73.12
2022-11-28T10:33:19.726Z,78.75
2022-11-28T10:34:19.755Z,84.38
2022-11-28T10:35:22.753Z,90.00
2022-11-28T10:36:19.833Z,90.00
2022-11-28T10:37:19.826Z,95.62
2022-11-28T10:38:19.836Z,101.25
2022-11-28T10:39:19.873Z,106.88
2022-11-28T10:40:19.876Z,106.88
2022-11-28T10:41:19.942Z,106.88
2022-11-28T10:42:19.907Z,106.88
2022-11-28T10:43:19.958Z,106.88
2022-11-28T10:44:21.604Z,106.88
2022-11-28T10:45:20.028Z,106.88
2022-11-28T10:46:20.272Z,106.88
2022-11-28T10:47:20.178Z,106.88
2022-11-28T10:48:38.980Z,106.88
2022-11-28T10:49:20.220Z,106.88
2022-11-28T10:50:20.198Z,106.88
2022-11-28T10:51:20.209Z,101.25
2022-11-28T10:52:20.269Z,101.25
2022-11-28T10:53:20.351Z,95.62
2022-11-28T10:54:20.378Z,90.00
2022-11-28T10:55:20.380Z,90.00
2022-11-28T10:56:20.390Z,84.38
2022-11-28T10:57:20.450Z,84.38
2022-11-28T10:58:20.461Z,90.00
2022-11-28T10:59:20.502Z,90.00
2022-11-28T11:00:20.512Z,90.00
2022-11-28T11:01:20.595Z,95.62
2022-11-28T11:02:20.551Z,95.62
2022-11-28T11:03:20.573Z,101.25
2022-11-28T11:04:20.625Z,106.88
2022-11-28T11:05:20.605Z,112.50
2022-11-28T11:06:20.615Z,118.12
2022-11-28T11:07:25.083Z,118.12
2022-11-28T11:08:20.781Z,123.75
2022-11-28T11:09:20.703Z,123.75
2022-11-28T11:10:20.734Z,123.75
2022-11-28T11:12:46.746Z,129.38
2022-11-28T11:28:06.661Z,129.38
2022-11-28T11:29:06.700Z,129.38
2022-11-28T11:30:06.793Z,129.38
2022-11-28T11:31:06.891Z,129.38
2022-11-28T11:32:06.873Z,129.38
2022-11-28T11:33:06.910Z,129.38
2022-11-28T11:35:32.902Z,123.75
2022-11-28T11:36:32.921Z,123.75
2022-11-28T11:37:32.964Z,118.12
2022-11-28T11:38:37.511Z,118.12
2022-11-28T11:39:33.068Z,112.50
2022-11-28T11:40:33.052Z,112.50
2022-11-28T11:41:33.062Z,106.88
2022-11-28T11:42:33.111Z,101.25
2022-11-28T11:43:33.103Z,101.25
2022-11-28T11:44:33.163Z,95.62
2022-11-28T11:45:33.173Z,95.62
2022-11-28T11:46:33.293Z,90.00
2022-11-28T11:47:33.223Z,84.38
2022-11-28T11:48:33.217Z,84.38
2022-11-28T11:49:33.293Z,78.75
2022-11-28T11:50:33.356Z,78.75
2022-11-28T11:51:39.092Z,78.75
2022-11-28T11:52:33.435Z,84.38
2022-11-28T11:53:33.425Z,84.38
2022-11-28T11:54:33.462Z,95.62
2022-11-28T11:55:33.515Z,95.62
2022-11-28T11:56:33.536Z,101.25
2022-11-28T11:57:34.549Z,101.25
2022-11-28T11:58:33.566Z,106.88
2022-11-28T11:59:33.608Z,112.50
2022-11-28T12:00:33.622Z,112.50
2022-11-28T12:01:33.660Z,118.12
2022-11-28T12:02:33.812Z,123.75
2022-11-28T12:03:33.897Z,129.38
2022-11-28T12:04:54.971Z,129.38
2022-11-28T12:05:46.623Z,129.38
2022-11-28T12:06:33.878Z,129.38
2022-11-28T12:07:33.877Z,135.00
2022-11-28T12:08:33.850Z,135.00
2022-11-28T12:09:33.879Z,129.38
2022-11-28T12:10:33.952Z,123.75
2022-11-28T12:11:34.002Z,123.75
2022-11-28T12:12:34.102Z,123.75
2022-11-28T12:13:34.110Z,123.75
2022-11-28T12:14:34.143Z,118.12
2022-11-28T12:15:34.160Z,112.50
2022-11-28T12:16:34.256Z,101.25
2022-11-28T12:17:48.784Z,90.00
2022-11-28T12:18:34.211Z,90.00
2022-11-28T12:19:34.286Z,84.38
2022-11-28T12:20:34.262Z,84.38
2022-11-28T12:21:34.272Z,84.38
2022-11-28T12:22:34.322Z,84.38
2022-11-28T12:23:34.342Z,78.75
2022-11-28T12:24:34.411Z,78.75
2022-11-28T12:25:34.394Z,73.12
2022-11-28T12:26:34.416Z,73.12
2022-11-28T12:27:34.454Z,73.12
2022-11-28T12:28:34.463Z,73.12
2022-11-28T12:29:34.484Z,73.12
2022-11-28T12:30:34.515Z,73.12
2022-11-28T12:31:34.613Z,78.75
2022-11-28T12:32:34.605Z,73.12
2022-11-28T12:33:34.668Z,73.12
2022-11-28T12:34:34.714Z,73.12
2022-11-28T12:35:34.725Z,73.12
2022-11-28T12:36:34.736Z,73.12
2022-11-28T12:38:02.831Z,67.50
2022-11-28T12:38:34.756Z,67.50
2022-11-28T12:39:34.906Z,67.50
2022-11-28T12:40:34.788Z,67.50
2022-11-28T12:41:34.777Z,67.50
2022-11-28T12:42:34.802Z,67.50
2022-11-28T12:43:34.848Z,73.12
2022-11-28T12:44:34.839Z,73.12
2022-11-28T12:45:34.848Z,73.12
2022-11-28T12:46:34.979Z,67.50
2022-11-28T12:47:34.927Z,67.50
2022-11-28T12:48:34.991Z,67.50
2022-11-28T12:49:35.060Z,61.88
2022-11-28T12:50:35.115Z,61.88
2022-11-28T12:51:35.138Z,61.88
2022-11-28T12:52:35.161Z,56.25
2022-11-28T12:53:35.161Z,56.25
2022-11-28T12:54:35.208Z,56.25
2022-11-28T12:55:35.220Z,56.25
2022-11-28T12:56:35.210Z,56.25
2022-11-28T12:57:35.251Z,61.88
2022-11-28T12:58:35.280Z,61.88
2022-11-28T12:59:35.299Z,56.25
2022-11-28T13:00:35.353Z,56.25
2022-11-28T13:01:35.554Z,56.25
2022-11-28T13:02:35.675Z,56.25
2022-11-28T13:03:35.509Z,56.25
2022-11-28T13:04:35.512Z,56.25
2022-11-28T13:05:35.573Z,56.25
2022-11-28T13:06:35.642Z,56.25
2022-11-28T13:07:35.676Z,56.25
2022-11-28T13:08:35.694Z,56.25
2022-11-28T13:09:35.753Z,56.25
2022-11-28T13:10:35.804Z,56.25
2022-11-28T13:11:35.796Z,50.62
2022-11-28T13:12:35.805Z,50.62
2022-11-28T13:13:35.824Z,45.00
2022-11-28T13:14:35.844Z,45.00
2022-11-28T13:15:35.917Z,45.00
2022-11-28T13:16:35.968Z,45.00
2022-11-28T13:17:35.979Z,45.00
2022-11-28T13:18:35.947Z,45.00
2022-11-28T13:19:35.985Z,45.00
2022-11-28T13:20:36.056Z,45.00
2022-11-28T13:21:36.024Z,45.00
2022-11-28T13:22:36.047Z,45.00